createdAt,value
2018-11-02T00:01:08.880Z,75.27
2018-11-02T00:02:13.015Z,75.28
2018-11-02T00:03:17.080Z,75.15
2018-11-02T00:04:21.282Z,75.47
2018-11-02T00:05:25.419Z,75.29
2018-11-02T00:06:30.239Z,75.05
2018-11-02T00:07:34.204Z,74.93
2018-11-02T00:08:38.361Z,75.17
2018-11-02T00:09:42.460Z,75.40
2018-11-02T00:10:46.594Z,75.19
2018-11-02T00:11:50.803Z,75.21
2018-11-02T00:12:55.275Z,75.20
2018-11-02T00:14:00.108Z,74.86
2018-11-02T00:15:04.386Z,74.91
2018-11-02T00:16:08.481Z,74.92
2018-11-02T00:17:12.632Z,75.03
2018-11-02T00:18:16.785Z,74.67
2018-11-02T00:19:26.251Z,74.65
2018-11-02T00:20:30.597Z,74.67
2018-11-02T00:21:34.786Z,74.86
2018-11-02T00:22:39.154Z,74.37
2018-11-02T00:23:43.215Z,74.44
2018-11-02T00:24:47.407Z,74.55
2018-11-02T00:25:51.545Z,74.26
2018-11-02T00:26:55.684Z,74.68
2018-11-02T00:27:59.855Z,74.42
2018-11-02T00:29:04.131Z,74.57
2018-11-02T00:30:08.302Z,74.44
2018-11-02T00:31:12.479Z,74.38
2018-11-02T00:32:16.724Z,74.37
2018-11-02T00:33:20.888Z,74.45
2018-11-02T00:34:25.010Z,74.38
2018-11-02T00:35:29.241Z,74.20
2018-11-02T00:36:33.780Z,74.23
2018-11-02T00:37:38.492Z,74.11
2018-11-02T00:38:42.658Z,73.96
2018-11-02T00:39:47.408Z,74.01
2018-11-02T00:40:51.480Z,73.97
2018-11-02T00:41:55.719Z,73.98
2018-11-02T00:42:59.899Z,74.08
2018-11-02T00:44:04.281Z,73.98
2018-11-02T00:45:10.010Z,73.79
2018-11-02T00:46:14.111Z,73.90
2018-11-02T00:47:18.212Z,73.87
2018-11-02T00:48:22.328Z,73.63
2018-11-02T00:49:26.586Z,73.68
2018-11-02T00:50:30.826Z,73.58
2018-11-02T00:51:35.552Z,73.49
2018-11-02T00:52:39.653Z,73.90
2018-11-02T00:53:43.785Z,73.73
2018-11-02T00:54:47.789Z,73.79
2018-11-02T00:55:51.911Z,73.71
2018-11-02T00:56:56.021Z,73.63
2018-11-02T00:58:00.942Z,73.82
2018-11-02T00:59:05.182Z,73.76
2018-11-02T01:00:11.510Z,73.49
2018-11-02T01:01:16.281Z,73.75
2018-11-02T01:02:20.425Z,73.55
2018-11-02T01:03:24.839Z,73.81
2018-11-02T01:04:28.984Z,73.72
2018-11-02T01:05:33.390Z,73.79
2018-11-02T01:06:38.015Z,73.80
2018-11-02T01:07:42.223Z,73.96
2018-11-02T01:08:46.359Z,73.93
2018-11-02T01:09:50.565Z,73.83
2018-11-02T01:10:54.636Z,73.84
2018-11-02T01:11:59.893Z,73.86
2018-11-02T01:13:04.118Z,73.92
2018-11-02T01:14:09.053Z,73.77
2018-11-02T01:15:13.160Z,73.75
2018-11-02T01:16:17.448Z,74.07
2018-11-02T01:17:21.559Z,74.36
2018-11-02T01:18:25.812Z,74.14
2018-11-02T01:19:33.856Z,74.36
2018-11-02T01:20:37.953Z,74.07
2018-11-02T01:21:42.064Z,74.27
2018-11-02T01:22:46.240Z,74.16
2018-11-02T01:23:50.934Z,74.28
2018-11-02T01:24:54.988Z,74.29
2018-11-02T01:25:59.260Z,74.36
2018-11-02T01:27:03.442Z,74.16
2018-11-02T01:28:07.717Z,74.33
2018-11-02T01:29:11.841Z,74.23
2018-11-02T01:30:15.913Z,74.20
2018-11-02T01:31:20.170Z,74.08
2018-11-02T01:32:24.363Z,74.29
2018-11-02T01:33:33.738Z,74.02
2018-11-02T01:34:37.849Z,74.03
2018-11-02T01:35:42.076Z,74.10
2018-11-02T01:36:46.149Z,74.21
2018-11-02T01:37:50.288Z,74.25
2018-11-02T01:38:54.449Z,74.18
2018-11-02T01:39:58.777Z,74.01
2018-11-02T01:41:03.292Z,73.98
2018-11-02T01:42:07.453Z,73.90
2018-11-02T01:43:11.705Z,73.88
2018-11-02T01:44:15.775Z,73.83
2018-11-02T01:45:20.002Z,73.58
2018-11-02T01:46:24.080Z,73.35
2018-11-02T01:47:28.290Z,73.62
2018-11-02T01:48:32.406Z,73.73
2018-11-02T01:49:36.543Z,73.51
2018-11-02T01:50:40.692Z,73.40
2018-11-02T01:51:44.832Z,73.46
2018-11-02T01:52:48.975Z,73.48
2018-11-02T01:53:53.214Z,73.14
2018-11-02T01:54:57.336Z,73.29
2018-11-02T01:56:01.723Z,73.02
2018-11-02T01:57:06.345Z,73.00
2018-11-02T01:58:10.613Z,73.06
2018-11-02T01:59:14.750Z,72.97
2018-11-02T02:00:18.933Z,73.01
2018-11-02T02:01:23.081Z,72.85
2018-11-02T02:02:27.246Z,73.05
2018-11-02T02:03:31.490Z,73.01
2018-11-02T02:04:35.670Z,72.63
2018-11-02T02:05:40.353Z,73.07
2018-11-02T02:06:44.461Z,72.88
2018-11-02T02:07:48.566Z,72.74
2018-11-02T02:08:53.055Z,72.52
2018-11-02T02:09:57.177Z,72.73
2018-11-02T02:11:01.309Z,72.79
2018-11-02T02:12:05.947Z,72.65
2018-11-02T02:13:10.160Z,72.57
2018-11-02T02:14:14.390Z,72.74
2018-11-02T02:15:18.515Z,72.83
2018-11-02T02:16:22.725Z,72.80
2018-11-02T02:17:27.824Z,72.82
2018-11-02T02:18:32.024Z,72.81
2018-11-02T02:19:36.189Z,72.74
2018-11-02T02:20:43.452Z,72.82
2018-11-02T02:21:47.714Z,72.92
2018-11-02T02:22:51.781Z,72.52
2018-11-02T02:23:55.956Z,72.86
2018-11-02T02:25:00.080Z,72.60
2018-11-02T02:26:04.647Z,72.58
2018-11-02T02:27:08.733Z,72.43
2018-11-02T02:28:12.940Z,72.44
2018-11-02T02:29:17.184Z,72.28
2018-11-02T02:30:21.255Z,72.39
2018-11-02T02:31:25.675Z,72.50
2018-11-02T02:32:29.810Z,72.57
2018-11-02T02:33:34.791Z,72.54
2018-11-02T02:34:38.898Z,72.37
2018-11-02T02:35:43.033Z,72.58
2018-11-02T02:36:47.193Z,72.29
2018-11-02T02:37:51.261Z,72.22
2018-11-02T02:38:55.373Z,72.56
2018-11-02T02:39:59.607Z,72.50
2018-11-02T02:41:03.716Z,72.14
2018-11-02T02:42:07.926Z,72.48
2018-11-02T02:43:12.718Z,71.94
2018-11-02T02:44:16.803Z,72.33
2018-11-02T02:45:21.041Z,72.01
2018-11-02T02:46:25.727Z,71.97
2018-11-02T02:47:29.974Z,72.11
2018-11-02T02:48:34.231Z,71.93
2018-11-02T02:49:38.340Z,72.09
2018-11-02T02:50:42.546Z,71.88
2018-11-02T02:51:46.587Z,71.74
2018-11-02T02:52:51.166Z,71.95
2018-11-02T02:53:55.279Z,71.81
2018-11-02T02:54:59.825Z,71.75
2018-11-02T02:56:03.893Z,71.59
2018-11-02T02:57:08.036Z,71.54
2018-11-02T02:58:12.326Z,71.53
2018-11-02T02:59:16.715Z,71.62
2018-11-02T03:00:20.913Z,71.43
2018-11-02T03:01:24.981Z,71.51
2018-11-02T03:02:29.213Z,71.38
2018-11-02T03:03:33.295Z,71.57
2018-11-02T03:04:37.455Z,71.57
2018-11-02T03:05:41.881Z,71.37
2018-11-02T03:06:46.021Z,71.46
2018-11-02T03:07:50.135Z,71.82
2018-11-02T03:08:54.885Z,71.43
2018-11-02T03:09:58.977Z,71.68
2018-11-02T03:11:03.383Z,71.56
2018-11-02T03:12:07.392Z,71.53
2018-11-02T03:13:11.506Z,71.75
2018-11-02T03:14:15.841Z,71.66
2018-11-02T03:15:19.924Z,71.45
2018-11-02T03:16:24.205Z,71.52
2018-11-02T03:17:28.288Z,71.76
2018-11-02T03:18:32.497Z,71.50
2018-11-02T03:19:36.618Z,71.33
2018-11-02T03:20:40.880Z,71.44
2018-11-02T03:21:44.907Z,71.62
2018-11-02T03:22:49.032Z,71.42
2018-11-02T03:23:53.156Z,71.16
2018-11-02T03:24:57.362Z,71.48
2018-11-02T03:26:01.483Z,71.31
2018-11-02T03:27:05.624Z,71.60
2018-11-02T03:28:09.819Z,71.62
2018-11-02T03:29:13.955Z,71.46
2018-11-02T03:30:18.065Z,71.30
2018-11-02T03:31:22.219Z,71.31
2018-11-02T03:32:26.325Z,71.49
2018-11-02T03:33:30.358Z,71.47
2018-11-02T03:34:34.615Z,71.38
2018-11-02T03:35:38.778Z,71.40
2018-11-02T03:36:43.018Z,71.27
2018-11-02T03:37:47.018Z,71.21
2018-11-02T03:38:51.244Z,71.31
2018-11-02T03:39:55.311Z,71.23
2018-11-02T03:40:59.530Z,71.06
2018-11-02T03:42:03.785Z,71.08
2018-11-02T03:43:07.927Z,71.00
2018-11-02T03:44:12.185Z,71.09
2018-11-02T03:45:16.318Z,70.70
2018-11-02T03:46:20.438Z,70.63
2018-11-02T03:47:24.517Z,70.70
2018-11-02T03:48:28.805Z,70.84
2018-11-02T03:49:33.770Z,70.78
2018-11-02T03:50:38.488Z,70.55
2018-11-02T03:51:42.732Z,70.55
2018-11-02T03:52:46.978Z,70.63
2018-11-02T03:53:51.106Z,70.42
2018-11-02T03:54:55.263Z,70.60
2018-11-02T03:55:59.820Z,70.49
2018-11-02T03:57:03.970Z,70.56
2018-11-02T03:58:08.131Z,70.53
2018-11-02T03:59:12.687Z,70.41
2018-11-02T04:00:16.872Z,70.38
2018-11-02T04:01:21.218Z,70.20
2018-11-02T04:02:25.479Z,70.22
2018-11-02T04:03:29.662Z,70.06
2018-11-02T04:04:33.934Z,70.18
2018-11-02T04:05:38.045Z,70.13
2018-11-02T04:06:42.684Z,70.06
2018-11-02T04:07:46.898Z,70.00
2018-11-02T04:08:51.109Z,69.91
2018-11-02T04:09:55.227Z,69.89
2018-11-02T04:10:59.426Z,69.83
2018-11-02T04:12:03.585Z,69.64
2018-11-02T04:13:07.701Z,69.95
2018-11-02T04:14:11.911Z,69.70
2018-11-02T04:15:16.125Z,69.81
2018-11-02T04:16:20.313Z,69.70
2018-11-02T04:17:25.099Z,69.82
2018-11-02T04:18:29.319Z,69.73
2018-11-02T04:19:33.487Z,69.94
2018-11-02T04:20:37.657Z,69.60
2018-11-02T04:21:47.390Z,69.39
2018-11-02T04:22:54.969Z,69.46
2018-11-02T04:24:03.523Z,69.53
2018-11-02T04:25:07.752Z,69.55
2018-11-02T04:26:12.699Z,69.16
2018-11-02T04:27:16.915Z,69.28
2018-11-02T04:28:21.052Z,69.04
2018-11-02T04:29:25.239Z,69.08
2018-11-02T04:30:29.351Z,69.19
2018-11-02T04:31:33.407Z,69.01
2018-11-02T04:32:37.573Z,69.11
2018-11-02T04:33:41.785Z,69.27
2018-11-02T04:34:46.111Z,69.19
2018-11-02T04:35:50.254Z,69.21
2018-11-02T04:36:54.475Z,69.25
2018-11-02T04:37:58.837Z,69.34
2018-11-02T04:39:03.060Z,69.22
2018-11-02T04:40:07.711Z,69.26
2018-11-02T04:41:11.951Z,68.85
2018-11-02T04:42:16.116Z,69.02
2018-11-02T04:43:20.312Z,69.21
2018-11-02T04:44:24.398Z,68.96
2018-11-02T04:45:32.775Z,68.77
2018-11-02T04:46:37.232Z,69.08
2018-11-02T04:47:41.368Z,69.00
2018-11-02T04:48:45.727Z,69.03
2018-11-02T04:49:49.868Z,69.07
2018-11-02T04:50:54.056Z,69.02
2018-11-02T04:51:58.115Z,69.25
2018-11-02T04:53:02.867Z,69.40
2018-11-02T04:54:07.005Z,69.39
2018-11-02T04:55:11.221Z,69.37
2018-11-02T04:56:15.392Z,69.48
2018-11-02T04:57:19.476Z,69.39
2018-11-02T04:58:23.658Z,69.30
2018-11-02T04:59:27.880Z,69.43
2018-11-02T05:00:32.542Z,69.58
2018-11-02T05:01:36.852Z,69.22
2018-11-02T05:02:40.909Z,69.54
2018-11-02T05:03:45.072Z,69.57
2018-11-02T05:04:49.273Z,69.76
2018-11-02T05:05:53.442Z,69.94
2018-11-02T05:06:57.675Z,69.74
2018-11-02T05:08:02.060Z,69.74
2018-11-02T05:09:07.873Z,69.80
2018-11-02T05:10:12.056Z,69.63
2018-11-02T05:11:16.568Z,69.73
2018-11-02T05:12:20.703Z,69.65
2018-11-02T05:13:24.848Z,69.73
2018-11-02T05:14:29.153Z,70.01
2018-11-02T05:15:33.244Z,70.00
2018-11-02T05:16:37.318Z,70.06
2018-11-02T05:17:41.518Z,70.04
2018-11-02T05:18:45.787Z,70.22
2018-11-02T05:19:49.829Z,70.64
2018-11-02T05:20:53.972Z,70.67
2018-11-02T05:21:58.057Z,70.38
2018-11-02T05:23:02.145Z,70.38
2018-11-02T05:24:06.242Z,70.26
2018-11-02T05:25:10.865Z,70.44
2018-11-02T05:26:15.048Z,70.48
2018-11-02T05:27:19.155Z,70.37
2018-11-02T05:28:23.356Z,70.33
2018-11-02T05:29:27.484Z,70.36
2018-11-02T05:30:31.666Z,70.42
2018-11-02T05:31:36.211Z,70.27
2018-11-02T05:32:40.598Z,70.42
2018-11-02T05:33:44.786Z,70.29
2018-11-02T05:34:49.019Z,70.36
2018-11-02T05:35:53.121Z,70.29
2018-11-02T05:36:57.317Z,70.24
2018-11-02T05:38:01.444Z,70.43
2018-11-02T05:39:08.594Z,69.99
2018-11-02T05:40:12.901Z,70.02
2018-11-02T05:41:17.112Z,70.30
2018-11-02T05:42:21.373Z,70.27
2018-11-02T05:43:25.456Z,69.94
2018-11-02T05:44:30.170Z,69.89
2018-11-02T05:45:34.419Z,69.71
2018-11-02T05:46:38.631Z,69.96
2018-11-02T05:47:42.711Z,69.75
2018-11-02T05:48:46.930Z,69.18
2018-11-02T05:49:51.265Z,69.56
2018-11-02T05:50:55.476Z,69.51
2018-11-02T05:51:59.595Z,69.54
2018-11-02T05:53:04.442Z,69.38
2018-11-02T05:54:08.711Z,69.37
2018-11-02T05:55:12.909Z,69.44
2018-11-02T05:56:17.101Z,69.18
2018-11-02T05:57:21.349Z,69.20
2018-11-02T05:58:25.707Z,69.31
2018-11-02T05:59:29.915Z,69.38
2018-11-02T06:00:34.119Z,69.22
2018-11-02T06:01:39.158Z,68.90
2018-11-02T06:02:43.229Z,69.10
2018-11-02T06:03:47.792Z,69.28
2018-11-02T06:04:51.987Z,69.24
2018-11-02T06:05:56.138Z,69.48
2018-11-02T06:07:00.449Z,69.34
2018-11-02T06:08:05.022Z,69.34
2018-11-02T06:09:09.418Z,69.37
2018-11-02T06:10:13.573Z,69.33
2018-11-02T06:11:17.791Z,69.29
2018-11-02T06:12:21.911Z,68.88
2018-11-02T06:13:26.139Z,69.31
2018-11-02T06:14:30.295Z,69.19
2018-11-02T06:15:34.592Z,69.39
2018-11-02T06:16:38.839Z,69.36
2018-11-02T06:17:42.922Z,69.29
2018-11-02T06:18:47.200Z,69.49
2018-11-02T06:19:51.257Z,69.37
2018-11-02T06:20:55.333Z,69.34
2018-11-02T06:21:59.465Z,69.32
2018-11-02T06:23:03.637Z,69.18
2018-11-02T06:24:07.800Z,69.46
2018-11-02T06:25:11.944Z,69.18
2018-11-02T06:26:16.142Z,68.93
2018-11-02T06:27:20.340Z,69.18
2018-11-02T06:28:24.509Z,69.81
2018-11-02T06:29:29.799Z,69.39
2018-11-02T06:30:34.309Z,69.07
2018-11-02T06:31:38.658Z,69.40
2018-11-02T06:32:42.843Z,69.45
2018-11-02T06:33:47.017Z,69.35
2018-11-02T06:34:51.091Z,69.42
2018-11-02T06:35:55.316Z,69.70
2018-11-02T06:36:59.523Z,69.78
2018-11-02T06:38:03.613Z,69.41
2018-11-02T06:39:09.047Z,69.38
2018-11-02T06:40:13.095Z,69.41
2018-11-02T06:41:17.523Z,69.77
2018-11-02T06:42:21.695Z,69.63
2018-11-02T06:43:25.855Z,69.46
2018-11-02T06:44:30.148Z,69.74
2018-11-02T06:45:34.513Z,69.95
2018-11-02T06:46:38.820Z,70.12
2018-11-02T06:47:42.965Z,69.87
2018-11-02T06:48:47.622Z,69.42
2018-11-02T06:49:51.717Z,69.42
2018-11-02T06:50:55.894Z,70.10
2018-11-02T06:52:00.057Z,69.96
2018-11-02T06:53:04.568Z,70.22
2018-11-02T06:54:08.695Z,70.10
2018-11-02T06:55:12.716Z,70.59
2018-11-02T06:56:16.931Z,70.52
2018-11-02T06:57:21.021Z,70.44
2018-11-02T06:58:31.485Z,70.44
2018-11-02T06:59:35.707Z,70.28
2018-11-02T07:00:40.077Z,70.34
2018-11-02T07:01:44.429Z,70.82
2018-11-02T07:02:48.475Z,70.89
2018-11-02T07:03:52.555Z,70.24
2018-11-02T07:04:56.843Z,70.25
2018-11-02T07:06:00.939Z,70.52
2018-11-02T07:07:05.280Z,70.64
2018-11-02T07:08:09.458Z,70.58
2018-11-02T07:09:13.824Z,70.58
2018-11-02T07:10:17.891Z,70.74
2018-11-02T07:11:21.987Z,70.58
2018-11-02T07:12:26.398Z,70.55
2018-11-02T07:13:30.628Z,70.82
2018-11-02T07:14:34.862Z,70.71
2018-11-02T07:15:39.090Z,70.15
2018-11-02T07:16:43.171Z,70.50
2018-11-02T07:17:47.264Z,70.44
2018-11-02T07:18:51.509Z,70.03
2018-11-02T07:19:55.627Z,70.09
2018-11-02T07:20:59.884Z,70.35
2018-11-02T07:22:04.012Z,70.28
2018-11-02T07:23:08.101Z,70.22
2018-11-02T07:24:12.404Z,70.20
2018-11-02T07:25:16.736Z,69.97
2018-11-02T07:26:20.657Z,70.07
2018-11-02T07:27:24.798Z,70.09
2018-11-02T07:28:28.987Z,70.01
2018-11-02T07:29:34.001Z,70.04
2018-11-02T07:30:38.055Z,70.11
2018-11-02T07:31:42.161Z,70.14
2018-11-02T07:32:46.252Z,70.18
2018-11-02T07:33:50.507Z,70.33
2018-11-02T07:34:55.037Z,70.20
2018-11-02T07:35:59.168Z,70.21
2018-11-02T07:37:03.337Z,70.26
2018-11-02T07:38:07.462Z,70.35
2018-11-02T07:39:11.963Z,70.49
2018-11-02T07:40:16.116Z,70.35
2018-11-02T07:41:20.276Z,70.63
2018-11-02T07:42:24.417Z,70.78
2018-11-02T07:43:28.576Z,71.17
2018-11-02T07:44:32.716Z,70.51
2018-11-02T07:45:36.802Z,70.52
2018-11-02T07:46:41.023Z,71.32
2018-11-02T07:47:45.325Z,70.76
2018-11-02T07:48:49.381Z,71.20
2018-11-02T07:49:53.627Z,71.39
2018-11-02T07:50:57.703Z,70.83
2018-11-02T07:52:01.802Z,71.31
2018-11-02T07:53:05.907Z,70.96
2018-11-02T07:54:10.017Z,71.09
2018-11-02T07:55:15.074Z,70.95
2018-11-02T07:56:19.120Z,71.24
2018-11-02T07:57:23.575Z,71.10
2018-11-02T07:58:27.732Z,71.01
2018-11-02T07:59:31.885Z,71.19
2018-11-02T08:00:36.056Z,71.17
2018-11-02T08:01:40.168Z,70.85
2018-11-02T08:02:45.653Z,71.02
2018-11-02T08:03:50.122Z,71.14
2018-11-02T08:04:54.170Z,71.04
2018-11-02T08:05:58.370Z,71.26
2018-11-02T08:07:02.539Z,71.33
2018-11-02T08:08:06.828Z,71.08
2018-11-02T08:09:12.755Z,71.44
2018-11-02T08:10:16.844Z,71.44
2018-11-02T08:11:21.010Z,71.34
2018-11-02T08:12:25.166Z,70.80
2018-11-02T08:13:29.366Z,71.08
2018-11-02T08:14:33.502Z,71.64
2018-11-02T08:15:37.642Z,71.02
2018-11-02T08:16:42.038Z,71.46
2018-11-02T08:17:46.598Z,71.44
2018-11-02T08:18:50.625Z,70.80
2018-11-02T08:19:54.763Z,70.84
2018-11-02T08:20:58.850Z,71.47
2018-11-02T08:22:03.669Z,71.29
2018-11-02T08:23:14.396Z,70.78
2018-11-02T08:24:18.438Z,70.80
2018-11-02T08:25:22.664Z,70.52
2018-11-02T08:26:27.303Z,71.44
2018-11-02T08:27:31.541Z,70.86
2018-11-02T08:28:35.712Z,71.49
2018-11-02T08:29:39.831Z,71.49
2018-11-02T08:30:43.953Z,71.56
2018-11-02T08:31:48.133Z,71.53
2018-11-02T08:32:52.487Z,71.04
2018-11-02T08:33:56.586Z,71.37
2018-11-02T08:35:00.813Z,71.57
2018-11-02T08:36:05.032Z,70.97
2018-11-02T08:37:09.236Z,71.28
2018-11-02T08:38:13.397Z,71.09
2018-11-02T08:39:17.741Z,70.97
2018-11-02T08:40:21.806Z,70.99
2018-11-02T08:41:25.903Z,71.62
2018-11-02T08:42:36.657Z,71.49
2018-11-02T08:43:40.791Z,70.93
2018-11-02T08:44:44.998Z,71.03
2018-11-02T08:45:49.970Z,71.10
2018-11-02T08:46:54.189Z,71.69
2018-11-02T08:47:58.484Z,70.99
2018-11-02T08:49:02.612Z,71.76
2018-11-02T08:50:08.177Z,71.38
2018-11-02T08:51:12.264Z,71.70
2018-11-02T08:52:16.390Z,71.50
2018-11-02T08:53:20.621Z,71.36
2018-11-02T08:54:24.689Z,71.90
2018-11-02T08:55:28.763Z,71.12
2018-11-02T08:56:32.937Z,71.87
2018-11-02T08:57:37.531Z,71.42
2018-11-02T08:58:41.795Z,72.04
2018-11-02T08:59:52.389Z,71.93
2018-11-02T09:00:58.534Z,71.67
2018-11-02T09:02:02.719Z,72.18
2018-11-02T09:03:06.827Z,71.69
2018-11-02T09:04:10.978Z,71.79
2018-11-02T09:05:15.136Z,71.14
2018-11-02T09:06:19.437Z,71.44
2018-11-02T09:07:23.499Z,71.51
2018-11-02T09:08:27.741Z,70.76
2018-11-02T09:09:31.838Z,71.18
2018-11-02T09:10:36.196Z,70.82
2018-11-02T09:11:40.293Z,70.62
2018-11-02T09:12:44.462Z,71.04
2018-11-02T09:13:48.625Z,70.72
2018-11-02T09:14:52.812Z,70.81
2018-11-02T09:15:57.011Z,70.78
2018-11-02T09:17:01.084Z,70.40
2018-11-02T09:18:05.269Z,70.19
2018-11-02T09:19:09.378Z,70.16
2018-11-02T09:20:13.559Z,70.51
2018-11-02T09:21:17.736Z,69.99
2018-11-02T09:22:21.999Z,69.94
2018-11-02T09:23:26.203Z,69.53
2018-11-02T09:24:30.405Z,69.88
2018-11-02T09:25:34.583Z,70.15
2018-11-02T09:26:38.833Z,69.80
2018-11-02T09:27:43.286Z,69.64
2018-11-02T09:28:47.732Z,69.45
2018-11-02T09:29:52.021Z,69.73
2018-11-02T09:30:56.749Z,69.79
2018-11-02T09:32:01.043Z,69.43
2018-11-02T09:33:05.507Z,69.79
2018-11-02T09:34:09.696Z,69.37
2018-11-02T09:35:14.752Z,69.37
2018-11-02T09:36:18.833Z,69.33
2018-11-02T09:37:22.934Z,69.25
2018-11-02T09:38:27.185Z,69.08
2018-11-02T09:39:31.276Z,69.41
2018-11-02T09:40:35.561Z,69.28
2018-11-02T09:41:39.590Z,69.31
2018-11-02T09:42:43.868Z,68.91
2018-11-02T09:43:47.771Z,69.20
2018-11-02T09:44:51.905Z,69.47
2018-11-02T09:45:56.114Z,68.87
2018-11-02T09:47:00.290Z,69.13
2018-11-02T09:48:05.381Z,69.20
2018-11-02T09:49:09.612Z,69.27
2018-11-02T09:50:13.887Z,69.12
2018-11-02T09:51:18.080Z,68.87
2018-11-02T09:52:22.498Z,69.12
2018-11-02T09:53:26.756Z,68.92
2018-11-02T09:54:30.972Z,68.66
2018-11-02T09:55:35.131Z,68.53
2018-11-02T09:56:39.211Z,68.43
2018-11-02T09:57:44.463Z,68.26
2018-11-02T09:58:48.594Z,68.66
2018-11-02T09:59:52.780Z,68.67
2018-11-02T10:00:57.539Z,68.56
2018-11-02T10:02:01.779Z,68.56
2018-11-02T10:03:06.353Z,68.54
2018-11-02T10:04:10.561Z,68.49
2018-11-02T10:05:15.089Z,68.10
2018-11-02T10:06:19.263Z,68.67
2018-11-02T10:07:24.107Z,68.22
2018-11-02T10:08:28.429Z,67.53
2018-11-02T10:09:32.483Z,67.74
2018-11-02T10:10:37.134Z,67.60
2018-11-02T10:11:41.311Z,67.29
2018-11-02T10:12:45.464Z,67.23
2018-11-02T10:13:50.443Z,67.08
2018-11-02T10:14:54.675Z,66.76
2018-11-02T10:15:59.049Z,66.65
2018-11-02T10:17:03.317Z,66.34
2018-11-02T10:18:07.523Z,66.17
2018-11-02T10:19:11.941Z,66.44
2018-11-02T10:20:15.981Z,66.21
2018-11-02T10:21:20.415Z,66.24
2018-11-02T10:22:24.541Z,66.08
2018-11-02T10:23:28.817Z,66.07
2018-11-02T10:24:33.023Z,65.82
2018-11-02T10:25:37.108Z,65.57
2018-11-02T10:26:41.595Z,65.51
2018-11-02T10:27:45.720Z,65.53
2018-11-02T10:28:50.127Z,65.51
2018-11-02T10:29:54.261Z,65.06
2018-11-02T10:30:58.503Z,64.94
2018-11-02T10:32:02.681Z,64.62
2018-11-02T10:33:06.806Z,64.67
2018-11-02T10:34:11.161Z,64.56
2018-11-02T10:35:15.367Z,64.52
2018-11-02T10:36:19.525Z,64.37
2018-11-02T10:37:23.761Z,64.16
2018-11-02T10:38:28.011Z,64.11
2018-11-02T10:39:33.265Z,64.04
2018-11-02T10:40:38.701Z,63.72
2018-11-02T10:41:49.921Z,64.06
2018-11-02T10:42:56.154Z,63.68
2018-11-02T10:44:00.514Z,63.53
2018-11-02T10:45:05.167Z,63.39
2018-11-02T10:46:09.293Z,63.20
2018-11-02T10:47:13.620Z,62.93
2018-11-02T10:48:17.717Z,63.29
2018-11-02T10:49:21.869Z,62.75
2018-11-02T10:50:26.023Z,62.58
2018-11-02T10:51:30.153Z,62.68
2018-11-02T10:52:34.215Z,62.81
2018-11-02T10:53:38.330Z,62.76
2018-11-02T10:54:42.629Z,62.54
2018-11-02T10:55:46.643Z,62.49
2018-11-02T10:56:50.837Z,62.44
2018-11-02T10:57:55.067Z,62.37
2018-11-02T10:58:59.239Z,62.32
2018-11-02T11:00:03.448Z,61.90
2018-11-02T11:02:10.562Z,62.04
2018-11-02T11:03:14.712Z,61.96
2018-11-02T11:04:19.097Z,62.16
2018-11-02T11:05:23.452Z,62.21
2018-11-02T11:06:27.510Z,61.92
2018-11-02T11:07:31.676Z,61.76
2018-11-02T11:08:35.967Z,61.62
2018-11-02T11:09:40.147Z,61.51
2018-11-02T11:10:44.310Z,61.40
2018-11-02T11:11:48.630Z,61.62
2018-11-02T11:12:53.088Z,61.37
2018-11-02T11:13:56.861Z,61.30
2018-11-02T11:15:01.016Z,61.31
2018-11-02T11:16:05.428Z,61.46
2018-11-02T11:17:09.677Z,61.37
2018-11-02T11:18:13.783Z,61.46
2018-11-02T11:19:17.930Z,61.27
2018-11-02T11:20:22.169Z,61.52
2018-11-02T11:21:26.498Z,61.11
2018-11-02T11:22:30.860Z,60.89
2018-11-02T11:23:35.072Z,60.88
2018-11-02T11:24:39.213Z,60.82
2018-11-02T11:25:43.365Z,60.43
2018-11-02T11:26:47.520Z,60.31
2018-11-02T11:27:51.719Z,60.34
2018-11-02T11:28:55.993Z,60.15
2018-11-02T11:30:00.121Z,60.17
2018-11-02T11:31:04.809Z,60.12
2018-11-02T11:32:08.996Z,59.73
2018-11-02T11:33:13.182Z,59.60
2018-11-02T11:34:17.287Z,59.44
2018-11-02T11:35:21.610Z,59.20
2018-11-02T11:36:26.332Z,59.13
2018-11-02T11:37:30.426Z,59.18
2018-11-02T11:38:35.040Z,59.00
2018-11-02T11:39:39.206Z,58.87
2018-11-02T11:40:43.324Z,58.96
2018-11-02T11:41:47.507Z,58.95
2018-11-02T11:42:51.664Z,58.59
2018-11-02T11:43:56.033Z,58.86
2018-11-02T11:45:00.519Z,58.54
2018-11-02T11:46:05.290Z,58.72
2018-11-02T11:47:10.846Z,58.64
2018-11-02T11:48:15.709Z,58.58
2018-11-02T11:49:20.189Z,58.22
2018-11-02T11:50:25.156Z,58.27
2018-11-02T11:51:29.870Z,58.39
2018-11-02T11:52:34.983Z,58.46
2018-11-02T11:53:40.793Z,58.38
2018-11-02T11:54:45.599Z,58.46
2018-11-02T11:55:50.804Z,58.33
2018-11-02T11:56:55.516Z,58.31
2018-11-02T11:58:00.442Z,58.13
2018-11-02T11:59:05.077Z,58.27
2018-11-02T12:00:11.636Z,58.07
2018-11-02T12:01:15.847Z,58.29
2018-11-02T12:02:20.148Z,58.16
2018-11-02T12:03:24.264Z,58.79
2018-11-02T12:04:28.806Z,58.30
2018-11-02T12:05:32.996Z,58.25
2018-11-02T12:06:37.849Z,58.37
2018-11-02T12:07:42.283Z,58.43
2018-11-02T12:08:46.608Z,57.93
2018-11-02T12:09:50.897Z,57.89
2018-11-02T12:10:55.075Z,57.74
2018-11-02T12:11:59.395Z,57.55
2018-11-02T12:13:03.514Z,57.59
2018-11-02T12:14:08.006Z,57.05
2018-11-02T12:15:15.149Z,56.88
2018-11-02T12:16:19.599Z,57.01
2018-11-02T12:17:23.816Z,56.75
2018-11-02T12:18:28.016Z,56.72
2018-11-02T12:19:32.183Z,56.66
2018-11-02T12:20:36.445Z,56.60
2018-11-02T12:21:40.865Z,56.70
2018-11-02T12:22:45.663Z,56.42
2018-11-02T12:23:49.791Z,56.38
2018-11-02T12:24:54.114Z,56.07
2018-11-02T12:25:58.459Z,55.35
2018-11-02T12:27:02.752Z,55.43
2018-11-02T12:28:07.011Z,55.23
2018-11-02T12:29:11.252Z,54.86
2018-11-02T12:30:16.698Z,54.63
2018-11-02T12:31:20.758Z,54.80
2018-11-02T12:32:24.933Z,54.47
2018-11-02T12:33:29.138Z,54.63
2018-11-02T12:34:33.305Z,54.48
2018-11-02T12:35:37.468Z,54.16
2018-11-02T12:36:41.673Z,54.15
2018-11-02T12:37:45.941Z,54.45
2018-11-02T12:38:50.340Z,54.07
2018-11-02T12:39:54.402Z,54.16
2018-11-02T12:40:58.534Z,54.02
2018-11-02T12:42:02.678Z,54.17
2018-11-02T12:43:06.795Z,54.37
2018-11-02T12:44:10.996Z,54.14
2018-11-02T12:45:16.417Z,54.30
2018-11-02T12:46:20.589Z,54.38
2018-11-02T12:47:24.716Z,54.41
2018-11-02T12:48:29.038Z,54.45
2018-11-02T12:49:33.508Z,54.73
2018-11-02T12:50:37.483Z,54.91
2018-11-02T12:51:41.568Z,54.87
2018-11-02T12:52:46.622Z,54.94
2018-11-02T12:53:50.818Z,55.10
2018-11-02T12:54:54.964Z,54.80
2018-11-02T12:55:59.443Z,54.68
2018-11-02T12:57:03.546Z,54.47
2018-11-02T12:58:07.659Z,54.05
2018-11-02T12:59:11.986Z,53.99
2018-11-02T13:00:17.392Z,53.97
2018-11-02T13:01:21.593Z,53.58
2018-11-02T13:02:25.719Z,53.37
2018-11-02T13:03:29.834Z,53.59
2018-11-02T13:04:33.930Z,53.24
2018-11-02T13:05:38.107Z,53.44
2018-11-02T13:06:42.230Z,53.35
2018-11-02T13:07:46.688Z,53.40
2018-11-02T13:08:50.966Z,53.29
2018-11-02T13:09:55.166Z,53.24
2018-11-02T13:10:59.652Z,53.41
2018-11-02T13:12:03.901Z,53.20
2018-11-02T13:13:08.312Z,53.35
2018-11-02T13:14:12.484Z,53.23
2018-11-02T13:15:18.502Z,53.10
2018-11-02T13:16:22.553Z,53.35
2018-11-02T13:17:26.708Z,53.14
2018-11-02T13:18:30.855Z,53.18
2018-11-02T13:19:34.942Z,53.35
2018-11-02T13:20:39.053Z,53.27
2018-11-02T13:21:43.255Z,53.52
2018-11-02T13:22:48.431Z,53.28
2018-11-02T13:23:52.601Z,53.69
2018-11-02T13:24:56.834Z,53.56
2018-11-02T13:26:01.160Z,53.63
2018-11-02T13:27:05.406Z,53.62
2018-11-02T13:28:09.511Z,53.91
2018-11-02T13:29:13.846Z,53.89
2018-11-02T13:30:18.159Z,53.87
2018-11-02T13:31:22.483Z,53.82
2018-11-02T13:32:26.574Z,53.94
2018-11-02T13:33:30.669Z,53.68
2018-11-02T13:34:34.861Z,53.22
2018-11-02T13:35:39.075Z,53.20
2018-11-02T13:36:43.398Z,52.86
2018-11-02T13:37:47.889Z,52.77
2018-11-02T13:38:52.079Z,52.63
2018-11-02T13:39:56.198Z,52.40
2018-11-02T13:41:00.402Z,52.28
2018-11-02T13:42:04.512Z,52.37
2018-11-02T13:43:08.663Z,52.29
2018-11-02T13:44:12.717Z,52.23
2018-11-02T13:45:17.825Z,52.15
2018-11-02T13:46:22.104Z,52.20
2018-11-02T13:47:26.186Z,52.24
2018-11-02T13:48:30.369Z,52.07
2018-11-02T13:49:34.483Z,52.31
2018-11-02T13:50:38.650Z,52.43